Time;durP1;ratioP1;P1;durP2;ratioP2;P2;SDS_P1;SDS_P2;PMS_P1;PMS_P2;Temp;Humidity;BMP_temperature;BMP_pressure;BME280_temperature;BME280_humidity;BME280_pressure;Samples;Min_cycle;Max_cycle;Signal;HPM_P1;HPM_P2
2021/10/05 00:01:43;;;;;;;10.50;2.60;;;13.60;96.70;;;;;;5020857;28;20077;-59
2021/10/05 00:04:10;;;;;;;9.63;1.67;;;13.60;96.60;;;;;;5023606;28;20061;-59
2021/10/05 00:06:37;;;;;;;9.18;2.13;;;13.70;96.40;;;;;;5023752;28;20561;-59
2021/10/05 00:09:04;;;;;;;8.65;2.65;;;13.70;96.40;;;;;;5026807;28;20472;-59
2021/10/05 00:11:31;;;;;;;13.80;3.05;;;13.70;96.30;;;;;;5026931;28;20057;-59
2021/10/05 00:13:58;;;;;;;8.75;2.28;;;13.80;95.80;;;;;;5026145;28;20045;-59
2021/10/05 00:16:24;;;;;;;15.10;3.38;;;13.80;95.70;;;;;;5026348;28;20049;-59
2021/10/05 00:18:51;;;;;;;8.55;2.22;;;13.80;95.50;;;;;;5025123;28;20587;-59
2021/10/05 00:21:19;;;;;;;9.93;1.75;;;13.80;95.50;;;;;;5025274;28;20083;-59
2021/10/05 00:23:45;;;;;;;10.30;3.05;;;13.90;95.20;;;;;;5026881;28;20076;-59
2021/10/05 00:26:12;;;;;;;11.57;2.30;;;13.90;95.30;;;;;;5026002;28;20056;-59
2021/10/05 00:28:39;;;;;;;10.85;2.03;;;13.90;95.60;;;;;;5025669;28;20136;-59
2021/10/05 00:31:07;;;;;;;10.77;2.60;;;13.90;95.00;;;;;;5026654;28;20069;-59
2021/10/05 00:33:34;;;;;;;8.13;2.42;;;14.00;95.00;;;;;;5025787;28;20063;-59
2021/10/05 00:36:00;;;;;;;6.65;1.83;;;14.00;95.20;;;;;;5025823;28;20084;-59
2021/10/05 00:38:27;;;;;;;11.40;2.53;;;14.00;95.20;;;;;;5025073;28;20081;-59
2021/10/05 00:40:54;;;;;;;10.77;2.45;;;14.00;94.90;;;;;;5025882;28;20077;-59
2021/10/05 00:43:20;;;;;;;12.10;2.67;;;14.00;95.20;;;;;;5005893;28;20136;-59
2021/10/05 00:45:47;;;;;;;12.20;2.90;;;14.10;95.00;;;;;;5021910;28;20207;-59
2021/10/05 00:48:14;;;;;;;13.10;2.90;;;14.10;94.90;;;;;;5025757;28;20080;-59
2021/10/05 00:50:41;;;;;;;15.93;3.20;;;14.20;94.60;;;;;;5026180;28;20584;-59
2021/10/05 00:53:07;;;;;;;8.43;2.15;;;14.20;94.80;;;;;;5041162;28;20534;-59
2021/10/05 00:55:36;;;;;;;10.27;2.58;;;14.20;94.80;;;;;;5024551;28;20080;-59
2021/10/05 00:58:03;;;;;;;9.68;2.30;;;14.30;94.70;;;;;;5022839;28;20140;-59
2021/10/05 01:00:29;;;;;;;10.63;2.47;;;14.30;94.60;;;;;;5021868;28;20552;-59
2021/10/05 01:02:57;;;;;;;13.38;2.53;;;14.30;94.50;;;;;;5021056;28;20053;-59
2021/10/05 01:05:25;;;;;;;7.75;2.25;;;14.30;94.80;;;;;;5021195;28;20462;-59
2021/10/05 01:07:52;;;;;;;12.60;2.15;;;14.30;94.90;;;;;;5023040;28;20050;-59
2021/10/05 01:10:18;;;;;;;8.57;1.98;;;14.30;94.80;;;;;;5022181;28;20077;-59
2021/10/05 01:12:47;;;;;;;10.13;2.47;;;14.30;95.20;;;;;;5022459;28;20137;-59
2021/10/05 01:15:14;;;;;;;8.43;2.35;;;14.20;95.40;;;;;;5021019;28;20121;-59
2021/10/05 01:17:40;;;;;;;8.93;1.90;;;14.20;95.60;;;;;;5022562;28;20122;-59
2021/10/05 01:20:08;;;;;;;10.43;3.38;;;14.10;95.80;;;;;;5021022;28;20132;-59
2021/10/05 01:22:35;;;;;;;9.27;2.35;;;14.10;95.90;;;;;;5022490;28;20080;-59
2021/10/05 01:25:10;;;;;;;8.25;2.67;;;14.10;96.30;;;;;;5021148;28;20164;-59
2021/10/05 01:27:55;;;;;;;12.20;2.50;;;14.10;96.50;;;;;;5022602;28;20508;-60
2021/10/05 01:30:22;;;;;;;7.20;2.13;;;14.00;97.00;;;;;;5021972;28;20141;-60
2021/10/05 01:32:49;;;;;;;14.63;2.50;;;14.00;96.90;;;;;;5015043;28;20133;-60
2021/10/05 01:35:18;;;;;;;12.65;2.10;;;13.90;97.10;;;;;;5024227;28;20065;-59
2021/10/05 01:37:45;;;;;;;15.95;2.35;;;13.90;97.40;;;;;;5024041;28;20049;-60
2021/10/05 01:40:12;;;;;;;12.68;2.10;;;13.90;97.70;;;;;;5023758;28;20132;-60
2021/10/05 01:42:39;;;;;;;10.07;2.80;;;13.80;97.60;;;;;;5025120;28;20124;-60
2021/10/05 01:45:06;;;;;;;14.07;2.92;;;13.80;97.90;;;;;;5023620;28;20085;-61
2021/10/05 01:47:33;;;;;;;9.10;2.05;;;13.80;97.80;;;;;;5023951;28;20531;-61
2021/10/05 01:49:59;;;;;;;9.25;2.78;;;13.80;98.00;;;;;;5012038;28;20138;-61
2021/10/05 01:52:26;;;;;;;12.55;2.92;;;13.80;98.20;;;;;;5020297;28;20622;-61
2021/10/05 01:54:53;;;;;;;12.50;2.95;;;13.70;98.20;;;;;;5039652;28;20506;-61
2021/10/05 01:57:20;;;;;;;10.13;1.98;;;13.70;98.40;;;;;;5025101;28;20571;-61
2021/10/05 01:59:46;;;;;;;9.88;1.65;;;13.70;98.60;;;;;;5023300;28;20076;-61
2021/10/05 02:02:13;;;;;;;8.60;2.00;;;13.70;98.70;;;;;;5023214;28;20089;-61
2021/10/05 02:04:44;;;;;;;11.77;2.78;;;13.70;99.20;;;;;;5039469;28;20056;-60
2021/10/05 02:07:12;;;;;;;9.43;2.30;;;13.70;99.30;;;;;;5024728;28;20054;-61
2021/10/05 02:09:39;;;;;;;11.77;2.65;;;13.60;99.40;;;;;;5023786;28;20492;-60
2021/10/05 02:12:06;;;;;;;11.23;3.00;;;13.60;99.70;;;;;;5022317;28;20077;-59
2021/10/05 02:14:33;;;;;;;9.30;2.78;;;13.70;99.60;;;;;;5023442;28;20081;-61
2021/10/05 02:16:59;;;;;;;9.55;2.40;;;13.60;99.50;;;;;;5022838;28;20124;-61
2021/10/05 02:19:26;;;;;;;11.95;2.33;;;13.60;99.70;;;;;;5021606;28;20616;-60
2021/10/05 02:21:53;;;;;;;9.80;2.38;;;13.60;99.70;;;;;;5023201;28;20128;-61
2021/10/05 02:26:50;;;;;;;13.15;3.22;;;13.60;99.90;;;;;;5025419;28;20088;-60
2021/10/05 02:29:18;;;;;;;7.35;1.88;;;13.60;99.90;;;;;;5009165;28;20551;-60
2021/10/05 02:31:44;;;;;;;9.80;2.28;;;13.60;99.90;;;;;;5015633;28;20076;-60
2021/10/05 02:34:13;;;;;;;6.50;2.03;;;13.60;99.90;;;;;;5029207;28;20467;-60
2021/10/05 02:36:40;;;;;;;10.48;2.53;;;13.60;99.90;;;;;;5029052;28;20046;-60
2021/10/05 02:39:07;;;;;;;7.53;2.42;;;13.60;99.90;;;;;;5025690;28;20069;-58
2021/10/05 02:41:34;;;;;;;5.72;1.98;;;13.60;99.90;;;;;;5028179;28;20124;-59
2021/10/05 02:44:01;;;;;;;8.80;2.03;;;13.50;99.90;;;;;;5026500;28;20077;-60
2021/10/05 02:46:27;;;;;;;9.07;1.75;;;13.60;99.90;;;;;;5042748;28;20133;-60
2021/10/05 02:48:54;;;;;;;5.65;1.35;;;13.60;99.90;;;;;;5029149;28;20100;-59
2021/10/05 02:51:21;;;;;;;9.55;1.95;;;13.50;99.90;;;;;;5029102;28;20099;-59
2021/10/05 02:53:47;;;;;;;6.50;1.90;;;13.50;99.90;;;;;;5028242;28;20081;-58
2021/10/05 02:56:15;;;;;;;8.68;1.58;;;13.60;99.90;;;;;;5028142;28;20072;-60
2021/10/05 02:58:42;;;;;;;5.85;1.50;;;13.60;99.90;;;;;;5028267;28;20092;-58
2021/10/05 03:01:09;;;;;;;4.38;1.30;;;13.60;99.90;;;;;;5028854;28;20144;-58
2021/10/05 03:03:36;;;;;;;5.00;1.60;;;13.60;99.90;;;;;;5028142;28;20101;-59
2021/10/05 03:06:02;;;;;;;5.68;1.50;;;13.60;99.90;;;;;;5029029;28;20088;-59
2021/10/05 03:08:29;;;;;;;5.40;1.73;;;13.50;99.90;;;;;;5028410;28;20556;-59
2021/10/05 03:10:57;;;;;;;3.47;1.13;;;13.60;99.90;;;;;;5028383;28;20084;-59
2021/10/05 03:13:24;;;;;;;4.68;1.30;;;13.60;99.90;;;;;;5026318;28;20049;-59
2021/10/05 03:15:52;;;;;;;4.15;1.55;;;13.60;99.90;;;;;;5029004;28;20081;-59
2021/10/05 03:18:18;;;;;;;4.13;1.40;;;13.60;99.90;;;;;;5028144;28;20110;-59
2021/10/05 03:20:45;;;;;;;3.88;1.08;;;13.60;99.90;;;;;;5043753;28;20084;-59
2021/10/05 03:23:12;;;;;;;3.80;0.88;;;13.60;99.90;;;;;;5028102;28;20136;-59
2021/10/05 03:25:38;;;;;;;2.30;1.00;;;13.60;99.90;;;;;;5027929;28;20166;-60
2021/10/05 03:28:05;;;;;;;4.55;1.13;;;13.60;99.90;;;;;;5028716;28;20140;-59
2021/10/05 03:30:32;;;;;;;2.67;0.98;;;13.60;99.90;;;;;;5028371;28;20500;-59
2021/10/05 03:32:59;;;;;;;2.28;0.90;;;13.60;99.90;;;;;;5027659;28;20163;-59
2021/10/05 03:35:25;;;;;;;2.30;1.00;;;13.60;99.90;;;;;;5027580;28;20132;-59
2021/10/05 03:37:52;;;;;;;3.80;1.02;;;13.60;99.90;;;;;;5027265;28;20647;-59
2021/10/05 03:40:19;;;;;;;2.08;0.90;;;13.70;99.90;;;;;;5028014;28;20073;-60
2021/10/05 03:42:45;;;;;;;1.75;0.85;;;13.70;99.90;;;;;;5027719;28;20081;-59
2021/10/05 03:45:12;;;;;;;7.78;1.23;;;13.70;99.90;;;;;;5027756;28;20060;-59
2021/10/05 03:47:39;;;;;;;3.95;0.85;;;13.70;99.90;;;;;;5042561;28;20077;-59
2021/10/05 03:50:07;;;;;;;8.27;1.13;;;13.70;99.90;;;;;;5028128;28;20057;-58
2021/10/05 03:52:34;;;;;;;1.52;0.70;;;13.60;99.90;;;;;;5027983;28;20172;-58
2021/10/05 03:55:00;;;;;;;3.35;0.82;;;13.60;99.90;;;;;;5027259;28;20088;-58
2021/10/05 03:57:27;;;;;;;2.20;0.77;;;13.40;99.90;;;;;;5043330;28;20144;-59
2021/10/05 03:59:54;;;;;;;4.93;0.65;;;13.30;99.90;;;;;;5027236;28;20136;-59
2021/10/05 04:02:20;;;;;;;2.28;0.55;;;13.20;99.90;;;;;;5027097;28;20076;-58
2021/10/05 04:04:47;;;;;;;7.95;1.35;;;13.00;99.90;;;;;;5027550;28;20050;-60
2021/10/05 04:07:14;;;;;;;5.13;0.90;;;12.80;99.90;;;;;;5027570;28;20080;-58
2021/10/05 04:09:43;;;;;;;6.03;0.85;;;12.70;99.90;;;;;;5027412;28;20554;-59
2021/10/05 04:12:10;;;;;;;2.45;0.52;;;12.60;99.90;;;;;;5027847;28;20111;-59
2021/10/05 04:14:37;;;;;;;1.75;0.60;;;12.60;99.90;;;;;;5026697;28;20480;-60
2021/10/05 04:17:03;;;;;;;0.82;0.50;;;12.60;99.90;;;;;;5026968;28;20045;-60
2021/10/05 04:19:30;;;;;;;2.50;0.80;;;12.70;99.90;;;;;;5027759;28;20736;-60
2021/10/05 04:21:57;;;;;;;4.53;1.55;;;12.70;99.90;;;;;;5027596;28;20132;-60
2021/10/05 04:24:24;;;;;;;3.53;0.60;;;12.70;99.90;;;;;;5026974;28;20091;-60
2021/10/05 04:26:51;;;;;;;3.05;0.82;;;12.70;99.90;;;;;;5027177;28;20104;-59
2021/10/05 04:29:18;;;;;;;2.67;0.80;;;12.70;99.90;;;;;;5026729;28;20079;-59
2021/10/05 04:31:45;;;;;;;5.57;1.05;;;12.60;99.90;;;;;;5025868;28;20081;-59
2021/10/05 04:34:11;;;;;;;3.28;0.75;;;12.60;99.90;;;;;;5026204;28;20088;-59
2021/10/05 04:36:38;;;;;;;1.45;0.70;;;12.50;99.90;;;;;;5026837;28;20488;-59
2021/10/05 04:39:05;;;;;;;3.53;1.13;;;12.60;99.90;;;;;;5022900;28;20128;-59
2021/10/05 04:41:32;;;;;;;5.60;1.20;;;12.50;99.90;;;;;;5022953;28;20132;-61
2021/10/05 04:43:59;;;;;;;4.70;1.25;;;12.50;99.90;;;;;;5024430;28;20084;-59
2021/10/05 04:46:25;;;;;;;3.85;1.00;;;12.50;99.90;;;;;;5023995;28;20057;-59
2021/10/05 04:48:52;;;;;;;3.40;1.23;;;12.40;99.90;;;;;;5018115;28;20074;-59
2021/10/05 04:51:19;;;;;;;4.75;1.23;;;12.40;99.90;;;;;;5018834;28;20470;-61
2021/10/05 04:53:46;;;;;;;2.63;1.08;;;12.40;99.90;;;;;;5021303;28;20133;-60
2021/10/05 04:56:12;;;;;;;4.75;0.88;;;12.40;99.90;;;;;;5021021;28;20128;-60
2021/10/05 04:58:39;;;;;;;3.60;0.88;;;12.40;99.90;;;;;;5019981;28;20575;-60
2021/10/05 05:01:06;;;;;;;5.53;1.58;;;12.40;99.90;;;;;;5020517;28;20467;-60
2021/10/05 05:03:33;;;;;;;3.88;1.08;;;12.40;99.90;;;;;;5019218;28;20412;-60
2021/10/05 05:05:59;;;;;;;6.20;1.00;;;12.40;99.90;;;;;;5019406;28;20651;-60
2021/10/05 05:08:26;;;;;;;4.15;1.10;;;12.30;99.90;;;;;;5020362;28;20132;-60
2021/10/05 05:10:53;;;;;;;1.77;0.82;;;12.30;99.90;;;;;;5019371;28;20109;-60
2021/10/05 05:13:20;;;;;;;2.22;0.93;;;12.30;99.90;;;;;;5018724;28;20132;-60
2021/10/05 05:15:46;;;;;;;4.68;1.13;;;12.30;99.90;;;;;;5019967;28;20118;-60
2021/10/05 05:18:13;;;;;;;2.13;0.80;;;12.30;99.90;;;;;;5020357;28;20045;-60
2021/10/05 05:20:40;;;;;;;6.03;1.02;;;12.30;99.90;;;;;;5021025;28;20045;-60
2021/10/05 05:23:07;;;;;;;6.00;1.05;;;12.30;99.90;;;;;;5020401;28;20053;-60
2021/10/05 05:25:34;;;;;;;2.65;0.90;;;12.30;99.90;;;;;;5021008;28;20085;-60
2021/10/05 05:28:00;;;;;;;3.80;1.10;;;12.30;99.90;;;;;;5021652;28;20092;-60
2021/10/05 05:30:27;;;;;;;7.97;1.20;;;12.30;99.90;;;;;;5021395;28;20124;-60
2021/10/05 05:32:54;;;;;;;4.72;1.02;;;12.20;99.90;;;;;;5020544;28;20107;-60
2021/10/05 05:35:21;;;;;;;5.22;1.00;;;12.20;99.90;;;;;;5021713;28;20053;-60
2021/10/05 05:37:48;;;;;;;2.45;0.90;;;12.20;99.90;;;;;;5021533;28;20140;-60
2021/10/05 05:40:15;;;;;;;4.53;1.23;;;12.20;99.90;;;;;;5020845;28;20073;-60
2021/10/05 05:42:41;;;;;;;5.13;1.00;;;12.20;99.90;;;;;;5022227;28;20576;-60
2021/10/05 05:45:08;;;;;;;3.92;0.95;;;12.20;99.90;;;;;;5021234;28;20132;-60
2021/10/05 05:47:36;;;;;;;2.65;1.10;;;12.20;99.90;;;;;;5020953;28;20143;-61
2021/10/05 05:50:04;;;;;;;7.45;1.20;;;12.10;99.90;;;;;;5021346;28;20056;-60
2021/10/05 05:52:32;;;;;;;8.18;1.15;;;12.10;99.90;;;;;;5020258;28;20464;-60
2021/10/05 05:54:59;;;;;;;4.55;1.58;;;12.00;99.90;;;;;;5020785;28;20274;-60
2021/10/05 05:57:26;;;;;;;4.82;0.85;;;12.00;99.90;;;;;;5020790;28;20049;-60
2021/10/05 05:59:52;;;;;;;6.50;1.27;;;12.00;99.90;;;;;;5020918;28;20167;-60
2021/10/05 06:02:19;;;;;;;6.07;1.25;;;12.00;99.90;;;;;;5023884;28;20073;-60
2021/10/05 06:04:46;;;;;;;4.75;1.30;;;12.00;99.90;;;;;;5023733;28;20107;-60
2021/10/05 06:07:13;;;;;;;3.90;0.90;;;11.90;99.90;;;;;;5025099;28;20049;-60
2021/10/05 06:09:40;;;;;;;4.18;1.55;;;11.90;99.90;;;;;;5024406;28;20488;-60
2021/10/05 06:12:10;;;;;;;6.68;1.08;;;11.90;99.90;;;;;;5024059;28;20049;-60
2021/10/05 06:14:37;;;;;;;7.38;2.08;;;11.80;99.90;;;;;;5024411;28;20132;-60
2021/10/05 06:17:06;;;;;;;5.57;1.13;;;11.80;99.90;;;;;;5023543;28;20053;-60
2021/10/05 06:19:33;;;;;;;4.80;1.25;;;11.80;99.90;;;;;;5021193;28;20064;-60
2021/10/05 06:22:00;;;;;;;5.75;1.50;;;11.70;99.90;;;;;;5023390;28;20107;-60
2021/10/05 06:24:27;;;;;;;8.00;1.80;;;11.60;99.90;;;;;;5024945;28;20068;-59
2021/10/05 06:26:53;;;;;;;7.93;1.50;;;11.60;99.90;;;;;;5024993;28;20144;-60
2021/10/05 06:29:20;;;;;;;4.95;1.73;;;11.60;99.90;;;;;;5023658;28;20079;-60
2021/10/05 06:31:47;;;;;;;9.82;1.55;;;11.50;99.90;;;;;;5024053;28;20111;-60
2021/10/05 06:34:14;;;;;;;7.80;1.45;;;11.50;99.90;;;;;;5024328;28;20050;-59
2021/10/05 06:36:40;;;;;;;7.43;1.70;;;11.50;99.90;;;;;;5024790;28;20095;-60
2021/10/05 06:39:07;;;;;;;5.07;1.60;;;11.40;99.90;;;;;;5024453;28;20126;-60
2021/10/05 06:41:34;;;;;;;10.27;1.98;;;11.40;99.90;;;;;;5024496;28;20636;-60
2021/10/05 06:44:01;;;;;;;5.45;1.27;;;11.40;99.90;;;;;;5024071;28;20079;-60
2021/10/05 06:46:27;;;;;;;10.40;3.00;;;11.30;99.90;;;;;;5023747;28;20095;-59
2021/10/05 06:48:54;;;;;;;6.72;1.20;;;11.30;99.90;;;;;;5023100;28;20496;-59
2021/10/05 06:51:21;;;;;;;7.40;1.90;;;11.20;99.90;;;;;;5024292;28;20136;-60
2021/10/05 06:53:48;;;;;;;5.88;1.38;;;11.20;99.90;;;;;;5023918;28;20142;-59
2021/10/05 06:56:14;;;;;;;8.40;1.42;;;11.20;99.90;;;;;;5023906;28;20052;-59
2021/10/05 06:58:41;;;;;;;4.85;1.60;;;11.10;99.90;;;;;;5023552;28;20160;-60
2021/10/05 07:01:08;;;;;;;7.22;2.47;;;11.10;99.90;;;;;;5024398;28;20104;-60
2021/10/05 07:03:35;;;;;;;6.72;1.70;;;11.10;99.90;;;;;;5023331;28;20046;-59
2021/10/05 07:06:02;;;;;;;12.85;2.58;;;11.10;99.90;;;;;;5024038;28;20558;-59
2021/10/05 07:08:29;;;;;;;7.65;1.77;;;11.10;99.90;;;;;;5023434;28;20478;-59
2021/10/05 07:10:55;;;;;;;5.22;2.03;;;11.00;99.90;;;;;;5023380;28;20045;-59
2021/10/05 07:13:22;;;;;;;3.28;1.50;;;11.00;99.90;;;;;;5022130;28;20453;-59
2021/10/05 07:15:49;;;;;;;9.80;1.50;;;11.00;99.90;;;;;;5024017;28;20139;-60
2021/10/05 07:18:16;;;;;;;6.07;1.42;;;11.00;99.90;;;;;;5022993;28;20060;-59
2021/10/05 07:20:42;;;;;;;3.92;1.48;;;11.00;99.90;;;;;;5023325;28;20136;-59
2021/10/05 07:23:09;;;;;;;6.82;1.48;;;11.00;99.90;;;;;;5023330;28;20152;-61
2021/10/05 07:25:36;;;;;;;8.43;1.52;;;11.00;99.90;;;;;;5021987;28;20527;-61
2021/10/05 07:28:03;;;;;;;9.75;2.17;;;11.00;99.90;;;;;;5023511;28;20140;-61
2021/10/05 07:30:30;;;;;;;10.82;1.73;;;11.00;99.90;;;;;;5021382;28;20081;-61
2021/10/05 07:32:59;;;;;;;7.13;2.03;;;11.00;99.90;;;;;;5022770;28;20120;-60
2021/10/05 07:35:26;;;;;;;6.15;1.60;;;11.00;99.90;;;;;;5021908;28;20295;-61
2021/10/05 07:37:53;;;;;;;5.82;2.17;;;11.00;99.90;;;;;;5023420;28;20139;-61
2021/10/05 07:40:20;;;;;;;8.00;1.80;;;11.00;99.90;;;;;;5021427;28;20049;-61
2021/10/05 07:42:49;;;;;;;6.25;1.80;;;11.00;99.90;;;;;;5022156;28;20041;-61
2021/10/05 07:45:16;;;;;;;7.03;1.85;;;11.10;99.90;;;;;;5023213;28;20451;-61
2021/10/05 07:47:43;;;;;;;7.85;1.92;;;11.10;99.90;;;;;;5023007;28;20467;-61
2021/10/05 07:50:09;;;;;;;5.90;1.88;;;11.10;99.90;;;;;;5023810;28;20124;-62
2021/10/05 07:52:36;;;;;;;8.15;1.42;;;11.10;99.90;;;;;;5021873;28;20401;-60
2021/10/05 07:55:04;;;;;;;6.65;1.50;;;11.10;99.90;;;;;;5020951;28;20737;-60
2021/10/05 07:57:31;;;;;;;10.98;2.70;;;11.10;99.90;;;;;;5022445;28;20140;-60
2021/10/05 07:59:58;;;;;;;5.95;1.73;;;11.10;99.90;;;;;;5037041;28;20104;-60
2021/10/05 08:02:24;;;;;;;5.57;1.45;;;11.10;99.90;;;;;;5021655;28;20149;-59
2021/10/05 08:04:53;;;;;;;10.15;1.75;;;11.20;99.90;;;;;;5022708;28;20073;-59
2021/10/05 08:07:20;;;;;;;7.57;1.83;;;11.20;99.90;;;;;;5022481;28;20054;-59
2021/10/05 08:09:47;;;;;;;5.38;1.50;;;11.20;99.90;;;;;;5022797;28;20049;-59
2021/10/05 08:12:14;;;;;;;5.00;1.83;;;11.20;99.90;;;;;;5022710;28;20119;-59
2021/10/05 08:14:41;;;;;;;5.60;1.60;;;11.30;99.90;;;;;;5021694;28;20101;-59
2021/10/05 08:17:08;;;;;;;7.13;1.50;;;11.30;99.90;;;;;;5021742;28;20146;-59
2021/10/05 08:19:34;;;;;;;6.22;2.00;;;11.30;99.90;;;;;;5022212;28;20122;-59
2021/10/05 08:22:01;;;;;;;7.38;1.27;;;11.30;99.90;;;;;;5022498;28;20053;-60
2021/10/05 08:24:28;;;;;;;5.80;1.70;;;11.30;99.90;;;;;;5020045;28;20453;-59
2021/10/05 08:26:55;;;;;;;6.32;1.45;;;11.30;99.90;;;;;;5021712;28;20053;-59
2021/10/05 08:29:22;;;;;;;2.72;1.08;;;11.40;99.90;;;;;;5017440;28;20145;-59
2021/10/05 08:31:49;;;;;;;5.65;1.27;;;11.50;99.90;;;;;;5017879;28;20843;-59
2021/10/05 08:34:17;;;;;;;8.98;1.98;;;11.50;99.90;;;;;;5018181;28;20136;-59
2021/10/05 08:36:44;;;;;;;4.22;1.50;;;11.60;99.90;;;;;;5020433;28;20570;-59
2021/10/05 08:39:14;;;;;;;7.05;1.27;;;11.70;99.90;;;;;;5021064;28;20437;-59
2021/10/05 08:41:44;;;;;;;6.85;1.80;;;11.80;99.90;;;;;;5034876;28;20546;-59
2021/10/05 08:44:11;;;;;;;4.43;1.35;;;11.80;99.90;;;;;;5018621;28;20077;-59
2021/10/05 08:46:38;;;;;;;5.05;1.23;;;11.80;99.90;;;;;;5016949;28;20128;-59
2021/10/05 08:49:05;;;;;;;8.90;1.65;;;11.80;99.90;;;;;;5017642;28;20128;-59
2021/10/05 08:51:32;;;;;;;3.63;1.25;;;11.90;99.90;;;;;;5019287;28;20568;-58
2021/10/05 08:53:59;;;;;;;5.35;1.65;;;11.80;99.90;;;;;;5020058;28;20052;-59
2021/10/05 08:56:26;;;;;;;5.60;1.45;;;11.90;99.90;;;;;;5018904;28;20472;-60
2021/10/05 08:58:53;;;;;;;6.10;1.23;;;11.90;99.90;;;;;;5018552;28;20053;-60
2021/10/05 09:01:20;;;;;;;6.38;1.30;;;12.00;99.60;;;;;;5017938;28;20072;-59
2021/10/05 09:03:51;;;;;;;3.47;1.58;;;12.10;99.10;;;;;;5016888;28;20049;-59
2021/10/05 09:06:19;;;;;;;2.75;1.20;;;12.10;98.20;;;;;;5019655;28;20050;-60
2021/10/05 09:08:46;;;;;;;6.80;1.15;;;12.20;98.00;;;;;;5015192;28;20136;-59
2021/10/05 09:11:14;;;;;;;4.55;1.13;;;12.30;97.50;;;;;;5019442;28;20128;-60
2021/10/05 09:13:42;;;;;;;10.80;1.92;;;12.30;97.70;;;;;;5015513;28;20132;-59
2021/10/05 09:16:26;;;;;;;4.40;1.30;;;12.40;96.40;;;;;;5020046;28;20045;-60
2021/10/05 09:19:00;;;;;;;3.53;1.10;;;12.40;97.80;;;;;;5019676;28;20087;-59
2021/10/05 09:21:29;;;;;;;4.97;1.35;;;12.40;98.40;;;;;;5032881;28;20041;-59
2021/10/05 09:23:59;;;;;;;4.75;2.50;;;12.50;96.10;;;;;;5020330;28;20072;-60
2021/10/05 09:26:43;;;;;;;2.78;1.10;;;12.50;95.40;;;;;;5018119;28;20056;-59
2021/10/05 09:29:13;;;;;;;1.67;1.05;;;12.50;95.70;;;;;;5020044;28;20471;-59
2021/10/05 09:31:54;;;;;;;6.32;0.98;;;12.60;95.90;;;;;;5034536;28;20121;-59
2021/10/05 09:34:32;;;;;;;1.55;0.95;;;12.60;95.20;;;;;;5018937;28;20125;-59
2021/10/05 09:37:07;;;;;;;2.50;1.10;;;12.70;94.70;;;;;;5017576;28;20104;-59
2021/10/05 09:39:41;;;;;;;3.00;1.30;;;12.70;93.80;;;;;;5022619;28;20488;-59
2021/10/05 09:42:07;;;;;;;4.45;0.93;;;12.70;94.00;;;;;;5021741;28;20042;-60
2021/10/05 09:44:37;;;;;;;2.85;1.10;;;12.70;93.80;;;;;;5024549;28;20144;-59
2021/10/05 09:47:03;;;;;;;2.58;1.00;;;12.80;93.90;;;;;;5024872;28;20333;-59
2021/10/05 09:49:40;;;;;;;3.47;1.10;;;12.80;93.30;;;;;;5024843;28;20088;-59
2021/10/05 09:52:08;;;;;;;3.03;0.88;;;12.80;92.80;;;;;;5024251;28;20134;-60
2021/10/05 09:54:35;;;;;;;2.55;1.00;;;12.80;91.90;;;;;;5024275;28;20091;-59
2021/10/05 09:57:02;;;;;;;2.70;1.13;;;12.80;92.30;;;;;;5022888;28;20141;-59
2021/10/05 09:59:29;;;;;;;3.42;1.25;;;12.90;92.00;;;;;;5024898;28;20225;-59
2021/10/05 10:01:57;;;;;;;4.55;1.20;;;13.00;91.90;;;;;;5023451;28;20088;-59
2021/10/05 10:04:24;;;;;;;2.95;1.15;;;13.10;91.30;;;;;;5023326;28;20080;-59
2021/10/05 10:06:52;;;;;;;3.63;1.05;;;13.30;91.90;;;;;;5038991;28;20991;-59
2021/10/05 10:09:19;;;;;;;3.45;0.80;;;13.30;92.80;;;;;;5039163;28;20060;-59
2021/10/05 10:11:45;;;;;;;1.38;0.88;;;13.50;91.50;;;;;;5022126;28;20544;-59
2021/10/05 10:14:12;;;;;;;4.05;1.30;;;13.40;90.40;;;;;;5022494;28;20064;-59
2021/10/05 10:16:39;;;;;;;1.90;0.95;;;13.50;92.00;;;;;;5021799;28;20148;-60
2021/10/05 10:19:06;;;;;;;3.58;1.45;;;13.60;90.80;;;;;;5024348;28;20053;-60
2021/10/05 10:21:34;;;;;;;5.03;1.42;;;13.60;90.70;;;;;;5024213;28;20073;-59
2021/10/05 10:24:10;;;;;;;5.18;0.77;;;13.60;90.50;;;;;;5024450;28;20049;-60
2021/10/05 10:26:41;;;;;;;0.85;0.60;;;13.60;89.70;;;;;;5021289;28;20654;-60
2021/10/05 10:29:28;;;;;;;3.75;0.88;;;13.60;89.70;;;;;;5019140;28;20218;-59
2021/10/05 10:31:55;;;;;;;1.92;0.90;;;13.60;90.10;;;;;;5018892;28;20593;-60
2021/10/05 10:34:23;;;;;;;1.65;0.90;;;13.50;90.60;;;;;;5012329;28;20119;-59
2021/10/05 10:36:50;;;;;;;3.03;0.80;;;13.50;90.30;;;;;;5026030;28;20420;-60
2021/10/05 10:39:21;;;;;;;1.98;1.00;;;13.50;91.60;;;;;;5022345;28;20053;-59
2021/10/05 10:41:54;;;;;;;2.63;0.93;;;13.50;91.10;;;;;;5023019;28;20509;-59
2021/10/05 10:44:28;;;;;;;2.83;1.00;;;13.50;91.40;;;;;;5021442;28;20136;-59
2021/10/05 10:47:24;;;;;;;1.88;1.05;;;13.60;91.40;;;;;;5021095;28;20508;-59
2021/10/05 10:50:02;;;;;;;1.63;1.02;;;13.60;89.60;;;;;;4998759;28;20053;-59
2021/10/05 10:52:31;;;;;;;2.50;1.08;;;13.50;90.10;;;;;;5020499;28;20053;-60
2021/10/05 10:54:58;;;;;;;2.25;1.05;;;13.50;90.50;;;;;;5019475;28;20283;-60
2021/10/05 10:57:54;;;;;;;2.10;0.80;;;13.50;91.00;;;;;;5021032;28;20107;-60
2021/10/05 11:00:23;;;;;;;3.20;1.17;;;13.50;89.50;;;;;;5025264;28;20068;-60
2021/10/05 11:02:51;;;;;;;1.10;0.63;;;13.50;91.30;;;;;;5020922;28;20100;-59
2021/10/05 11:05:22;;;;;;;3.10;0.95;;;13.50;90.20;;;;;;5025312;28;20045;-59
2021/10/05 11:07:50;;;;;;;1.83;1.00;;;13.50;91.20;;;;;;5027200;28;20050;-59
2021/10/05 11:10:22;;;;;;;3.50;0.90;;;13.50;90.70;;;;;;5024798;28;20461;-59
2021/10/05 11:12:53;;;;;;;2.00;0.70;;;13.50;90.90;;;;;;5026040;28;20087;-59
2021/10/05 11:15:40;;;;;;;2.75;0.90;;;13.40;90.10;;;;;;5025762;28;20056;-60
2021/10/05 11:18:12;;;;;;;1.77;0.80;;;13.30;90.30;;;;;;5026581;28;20327;-58
2021/10/05 11:20:51;;;;;;;2.25;0.73;;;13.30;90.80;;;;;;5026253;28;20478;-59
2021/10/05 11:23:19;;;;;;;3.10;0.85;;;13.30;90.70;;;;;;5025508;28;20077;-60
2021/10/05 11:25:54;;;;;;;6.07;1.02;;;13.30;90.90;;;;;;5023569;28;20077;-59
2021/10/05 11:28:22;;;;;;;0.93;0.70;;;13.30;90.90;;;;;;5020925;28;20104;-59
2021/10/05 11:30:54;;;;;;;7.03;1.05;;;13.50;90.50;;;;;;5023639;28;20160;-59
2021/10/05 11:33:27;;;;;;;2.83;0.88;;;13.60;90.10;;;;;;5021043;28;20132;-59
2021/10/05 11:35:56;;;;;;;1.52;1.10;;;13.70;89.50;;;;;;5022008;28;20053;-60
2021/10/05 11:38:23;;;;;;;2.22;0.65;;;13.80;89.20;;;;;;5021482;28;20092;-60
2021/10/05 11:40:55;;;;;;;1.52;0.85;;;13.90;88.80;;;;;;5026061;28;21024;-60
2021/10/05 11:43:39;;;;;;;2.38;0.80;;;13.80;87.50;;;;;;5020135;28;20045;-59
2021/10/05 11:46:12;;;;;;;1.65;0.80;;;13.80;88.10;;;;;;5026716;28;20144;-59
2021/10/05 11:48:49;;;;;;;1.35;0.95;;;13.90;88.10;;;;;;5025768;28;20099;-59
2021/10/05 11:51:17;;;;;;;2.90;1.00;;;14.00;88.50;;;;;;5024703;28;20428;-59
2021/10/05 11:53:44;;;;;;;1.38;0.70;;;14.10;88.90;;;;;;5025449;28;20045;-59
2021/10/05 11:56:17;;;;;;;4.95;1.23;;;14.10;87.50;;;;;;5026084;28;20083;-59
2021/10/05 11:58:50;;;;;;;5.15;1.30;;;14.10;87.80;;;;;;5007473;28;20137;-60
2021/10/05 12:01:26;;;;;;;3.22;1.05;;;14.00;88.40;;;;;;5025528;28;20137;-59
2021/10/05 12:03:57;;;;;;;1.17;0.82;;;13.90;89.20;;;;;;5025562;28;20049;-60
2021/10/05 12:06:27;;;;;;;2.28;1.23;;;13.80;90.40;;;;;;5020985;28;20127;-60
2021/10/05 12:08:54;;;;;;;1.95;1.40;;;13.60;91.60;;;;;;5022719;28;20451;-59
2021/10/05 12:11:20;;;;;;;2.80;1.67;;;13.50;92.70;;;;;;5021509;28;20142;-59
2021/10/05 12:13:47;;;;;;;3.75;2.05;;;13.40;93.00;;;;;;5022311;28;20499;-59
2021/10/05 12:16:15;;;;;;;1.95;1.05;;;13.40;93.00;;;;;;5022676;28;20103;-59
2021/10/05 12:18:42;;;;;;;3.45;1.27;;;13.50;93.40;;;;;;5021110;28;20080;-59
2021/10/05 12:21:10;;;;;;;3.30;1.13;;;13.50;92.60;;;;;;5022768;28;20203;-59
2021/10/05 12:23:36;;;;;;;5.07;2.00;;;13.50;92.10;;;;;;5021887;28;20150;-60
2021/10/05 12:26:12;;;;;;;5.03;2.95;;;14.10;92.90;;;;;;5021548;28;20604;-60
2021/10/05 12:29:04;;;;;;;6.20;3.08;;;14.80;91.40;;;;;;5021288;28;20243;-60
2021/10/05 12:31:32;;;;;;;3.40;1.60;;;15.00;87.30;;;;;;5019811;28;20136;-60
2021/10/05 12:34:02;;;;;;;2.65;1.77;;;14.90;87.40;;;;;;5022289;28;20393;-60
2021/10/05 12:36:29;;;;;;;3.53;2.28;;;14.90;87.70;;;;;;5021946;28;20081;-60
2021/10/05 12:39:06;;;;;;;4.15;1.45;;;14.90;87.10;;;;;;5023270;28;20091;-60
2021/10/05 12:41:33;;;;;;;1.75;0.80;;;14.80;87.20;;;;;;5001459;28;20531;-60
2021/10/05 12:44:00;;;;;;;1.58;0.60;;;14.90;86.10;;;;;;5013103;28;20049;-59
2021/10/05 12:46:28;;;;;;;3.83;1.65;;;14.90;85.50;;;;;;5025182;28;20049;-60
2021/10/05 12:49:00;;;;;;;1.35;0.77;;;15.00;87.60;;;;;;5024180;28;20057;-60
2021/10/05 12:51:28;;;;;;;2.05;0.60;;;15.00;86.60;;;;;;5006085;28;20487;-60
2021/10/05 12:54:01;;;;;;;2.70;1.00;;;14.80;84.90;;;;;;5011442;28;20057;-60